Time;durP1;ratioP1;P1;durP2;ratioP2;P2;SDS_P1;SDS_P2;PMS_P1;PMS_P2;Temp;Humidity;BMP_temperature;BMP_pressure;BME280_temperature;BME280_humidity;BME280_pressure;Samples;Min_cycle;Max_cycle;Signal;HPM_P1;HPM_P2
2022/07/21 00:00:24;;;;;;;31.02;25.60;;;;;;;;;;2090244;28;20183;-64
2022/07/21 00:01:24;;;;;;;29.35;25.23;;;;;;;;;;2090104;28;20713;-64
2022/07/21 00:02:25;;;;;;;29.95;25.67;;;;;;;;;;2090276;28;20155;-63
2022/07/21 00:03:25;;;;;;;27.95;24.95;;;;;;;;;;2089921;28;20176;-64
2022/07/21 00:04:25;;;;;;;31.67;26.25;;;;;;;;;;2088714;28;20183;-64
2022/07/21 00:05:26;;;;;;;29.90;25.40;;;;;;;;;;2087942;28;20258;-64
2022/07/21 00:06:26;;;;;;;28.88;24.45;;;;;;;;;;2089480;28;20185;-63
2022/07/21 00:07:26;;;;;;;31.52;25.38;;;;;;;;;;2089765;28;20187;-63
2022/07/21 00:08:27;;;;;;;30.35;25.30;;;;;;;;;;2090406;28;20182;-62
2022/07/21 00:09:27;;;;;;;32.80;27.13;;;;;;;;;;2090273;28;20175;-62
2022/07/21 00:10:28;;;;;;;35.22;26.65;;;;;;;;;;2090627;28;20256;-64
2022/07/21 00:11:28;;;;;;;34.63;27.70;;;;;;;;;;2089805;28;20206;-65
2022/07/21 00:12:29;;;;;;;32.60;26.08;;;;;;;;;;2089344;28;20163;-64
2022/07/21 00:13:29;;;;;;;34.30;28.25;;;;;;;;;;2089605;28;20175;-61
2022/07/21 00:14:29;;;;;;;36.08;28.90;;;;;;;;;;2088880;28;20578;-64
2022/07/21 00:15:30;;;;;;;34.47;26.25;;;;;;;;;;2072803;28;20185;-64
2022/07/21 00:16:30;;;;;;;35.20;27.83;;;;;;;;;;2073154;28;20172;-62
2022/07/21 00:17:30;;;;;;;38.15;28.30;;;;;;;;;;2089699;28;20518;-64
2022/07/21 00:18:31;;;;;;;33.63;28.33;;;;;;;;;;2081060;28;20188;-64
2022/07/21 00:19:32;;;;;;;41.67;31.85;;;;;;;;;;2081128;28;20199;-63
2022/07/21 00:20:32;;;;;;;33.95;28.88;;;;;;;;;;2081040;28;20317;-64
2022/07/21 00:21:33;;;;;;;36.88;29.05;;;;;;;;;;2081328;28;20551;-64
2022/07/21 00:22:33;;;;;;;40.15;30.80;;;;;;;;;;2080830;28;20179;-64
2022/07/21 00:23:33;;;;;;;37.92;31.08;;;;;;;;;;2081349;28;20197;-65
2022/07/21 00:24:34;;;;;;;38.88;31.23;;;;;;;;;;2080009;28;20176;-63
2022/07/21 00:25:34;;;;;;;38.60;29.25;;;;;;;;;;2081448;28;20184;-63
2022/07/21 00:26:34;;;;;;;38.63;29.92;;;;;;;;;;2081828;28;20172;-65
2022/07/21 00:27:35;;;;;;;37.33;28.63;;;;;;;;;;2073381;28;20185;-65
2022/07/21 00:28:35;;;;;;;36.05;28.48;;;;;;;;;;2081486;28;20212;-65
2022/07/21 00:29:35;;;;;;;36.15;30.95;;;;;;;;;;2089799;28;20159;-64
2022/07/21 00:30:36;;;;;;;36.28;28.40;;;;;;;;;;2090003;28;20269;-64
2022/07/21 00:31:36;;;;;;;36.97;28.35;;;;;;;;;;2090072;28;20194;-63
2022/07/21 00:32:37;;;;;;;38.58;29.90;;;;;;;;;;2089456;28;20584;-63
2022/07/21 00:33:37;;;;;;;36.72;29.80;;;;;;;;;;2089514;28;20320;-64
2022/07/21 00:34:37;;;;;;;34.33;28.77;;;;;;;;;;2088931;28;20210;-64
2022/07/21 00:35:38;;;;;;;39.72;29.55;;;;;;;;;;2089755;28;20195;-65
2022/07/21 00:36:38;;;;;;;40.17;30.40;;;;;;;;;;2090040;28;20171;-63
2022/07/21 00:37:39;;;;;;;38.67;28.58;;;;;;;;;;2089856;28;20163;-63
2022/07/21 00:38:39;;;;;;;33.10;27.25;;;;;;;;;;2089332;28;20280;-64
2022/07/21 00:39:40;;;;;;;35.53;25.35;;;;;;;;;;2089822;28;20253;-64
2022/07/21 00:40:40;;;;;;;32.90;26.75;;;;;;;;;;2089696;28;20593;-65
2022/07/21 00:41:40;;;;;;;32.85;26.15;;;;;;;;;;2089914;28;20182;-64
2022/07/21 00:42:41;;;;;;;35.33;25.42;;;;;;;;;;2089561;28;20668;-63
2022/07/21 00:43:41;;;;;;;29.50;25.75;;;;;;;;;;2080903;28;20199;-63
2022/07/21 00:44:42;;;;;;;29.67;24.83;;;;;;;;;;2080034;28;20776;-64
2022/07/21 00:45:42;;;;;;;28.40;24.80;;;;;;;;;;2089897;28;20171;-65
2022/07/21 00:46:42;;;;;;;33.22;26.95;;;;;;;;;;2089697;28;20209;-64
2022/07/21 00:47:43;;;;;;;33.30;25.98;;;;;;;;;;2081055;28;20736;-64
2022/07/21 00:48:43;;;;;;;33.80;26.10;;;;;;;;;;2080653;28;20669;-65
2022/07/21 00:49:44;;;;;;;28.23;23.45;;;;;;;;;;2089641;28;20168;-63
2022/07/21 00:50:44;;;;;;;31.65;26.92;;;;;;;;;;2080943;28;20172;-64
2022/07/21 00:51:45;;;;;;;32.92;25.85;;;;;;;;;;2072648;28;20173;-63
2022/07/21 00:52:46;;;;;;;30.58;25.48;;;;;;;;;;2080382;28;20177;-63
2022/07/21 00:53:46;;;;;;;34.92;27.55;;;;;;;;;;2089078;28;20159;-64
2022/07/21 00:54:47;;;;;;;32.35;25.23;;;;;;;;;;2088869;28;20202;-66
2022/07/21 00:55:47;;;;;;;30.10;23.35;;;;;;;;;;2080994;28;20168;-64
2022/07/21 00:56:48;;;;;;;31.67;25.02;;;;;;;;;;2081310;28;20176;-65
2022/07/21 00:57:49;;;;;;;34.10;25.35;;;;;;;;;;2089903;28;20246;-65
2022/07/21 00:58:49;;;;;;;31.05;23.48;;;;;;;;;;2090094;28;20175;-61
2022/07/21 00:59:50;;;;;;;27.13;22.88;;;;;;;;;;2090102;28;20605;-63
2022/07/21 01:00:50;;;;;;;28.88;22.88;;;;;;;;;;2080792;28;20640;-63
2022/07/21 01:01:50;;;;;;;30.13;23.38;;;;;;;;;;2080768;28;20707;-65
2022/07/21 01:02:51;;;;;;;26.98;24.10;;;;;;;;;;2090033;28;20168;-64
2022/07/21 01:03:51;;;;;;;25.60;22.77;;;;;;;;;;2080909;28;20607;-62
2022/07/21 01:04:52;;;;;;;24.60;21.42;;;;;;;;;;2080525;28;20168;-64
2022/07/21 01:05:52;;;;;;;32.05;23.75;;;;;;;;;;2089608;28;20263;-63
2022/07/21 01:06:53;;;;;;;27.17;22.92;;;;;;;;;;2081000;28;20707;-63
2022/07/21 01:07:54;;;;;;;25.73;22.17;;;;;;;;;;2080773;28;20168;-64
2022/07/21 01:08:55;;;;;;;29.55;23.13;;;;;;;;;;2080720;28;20616;-64
2022/07/21 01:09:56;;;;;;;25.20;22.38;;;;;;;;;;2080772;28;20187;-66
2022/07/21 01:10:56;;;;;;;29.50;22.33;;;;;;;;;;2089653;28;20167;-64
2022/07/21 01:11:57;;;;;;;25.48;22.70;;;;;;;;;;2089908;28;20521;-64
2022/07/21 01:12:58;;;;;;;30.15;23.27;;;;;;;;;;2090026;28;20229;-66
2022/07/21 01:13:59;;;;;;;31.48;23.88;;;;;;;;;;2080450;28;20284;-58
2022/07/21 01:14:59;;;;;;;29.83;24.38;;;;;;;;;;2081211;28;20167;-62
2022/07/21 01:15:59;;;;;;;25.60;22.88;;;;;;;;;;2089772;28;20168;-65
2022/07/21 01:17:00;;;;;;;27.25;22.08;;;;;;;;;;2081128;28;20176;-65
2022/07/21 01:18:01;;;;;;;27.95;22.60;;;;;;;;;;2081662;28;20175;-65
2022/07/21 01:19:02;;;;;;;27.30;22.42;;;;;;;;;;2081847;28;20203;-65
2022/07/21 01:20:06;;;;;;;28.17;22.73;;;;;;;;;;2090437;28;20203;-64
2022/07/21 01:21:22;;;;;;;28.02;22.08;;;;;;;;;;2090853;28;20176;-65
2022/07/21 01:22:23;;;;;;;29.60;24.23;;;;;;;;;;2091900;28;20709;-66
2022/07/21 01:23:23;;;;;;;28.45;23.13;;;;;;;;;;2091709;28;20175;-65
2022/07/21 01:24:24;;;;;;;28.63;23.50;;;;;;;;;;2081935;28;20637;-65
2022/07/21 01:25:24;;;;;;;31.23;24.13;;;;;;;;;;2084390;28;20199;-65
2022/07/21 01:26:24;;;;;;;29.05;25.63;;;;;;;;;;2092973;28;20175;-65
2022/07/21 01:27:26;;;;;;;28.40;24.55;;;;;;;;;;2092491;28;20175;-65
2022/07/21 01:28:26;;;;;;;29.33;25.20;;;;;;;;;;2092473;28;20694;-64
2022/07/21 01:29:26;;;;;;;28.45;24.38;;;;;;;;;;2092240;28;20160;-62
2022/07/21 01:30:27;;;;;;;31.33;24.65;;;;;;;;;;2092270;28;20183;-64
2022/07/21 01:31:27;;;;;;;31.02;24.88;;;;;;;;;;2092446;28;20179;-65
2022/07/21 01:32:27;;;;;;;32.30;24.15;;;;;;;;;;2092664;28;20174;-65
2022/07/21 01:33:28;;;;;;;31.52;23.88;;;;;;;;;;2092890;28;20207;-63
2022/07/21 01:34:28;;;;;;;34.25;24.15;;;;;;;;;;2082365;28;20200;-64
2022/07/21 01:35:28;;;;;;;27.92;24.67;;;;;;;;;;2083522;28;20179;-64
2022/07/21 01:36:29;;;;;;;26.45;23.63;;;;;;;;;;2093258;28;20198;-62
2022/07/21 01:37:31;;;;;;;28.50;23.30;;;;;;;;;;2090390;28;20170;-66
2022/07/21 01:42:28;;;;;;;29.55;24.98;;;;;;;;;;2093452;28;20156;-64
2022/07/21 01:43:28;;;;;;;26.73;23.50;;;;;;;;;;2092935;28;20535;-64
2022/07/21 01:44:29;;;;;;;26.20;23.60;;;;;;;;;;2091904;28;20281;-64
2022/07/21 01:45:29;;;;;;;27.90;24.90;;;;;;;;;;2092912;28;20240;-65
2022/07/21 01:46:31;;;;;;;25.00;22.25;;;;;;;;;;2076195;28;20203;-63
2022/07/21 01:47:31;;;;;;;31.77;24.38;;;;;;;;;;2082916;28;20246;-64
2022/07/21 01:48:32;;;;;;;27.73;23.40;;;;;;;;;;2091342;28;20571;-65
2022/07/21 01:49:32;;;;;;;31.02;24.75;;;;;;;;;;2090620;28;20175;-64
2022/07/21 01:50:33;;;;;;;31.25;25.75;;;;;;;;;;2091801;28;20640;-65
2022/07/21 01:51:33;;;;;;;28.65;24.50;;;;;;;;;;2092340;28;20187;-65
2022/07/21 01:52:34;;;;;;;29.33;23.95;;;;;;;;;;2092080;28;20221;-64
2022/07/21 01:53:34;;;;;;;29.25;25.33;;;;;;;;;;2092114;28;20278;-65
2022/07/21 01:54:34;;;;;;;26.63;23.92;;;;;;;;;;2091124;28;20174;-65
2022/07/21 01:55:35;;;;;;;31.80;25.92;;;;;;;;;;2091591;28;20581;-65
2022/07/21 01:56:35;;;;;;;32.08;26.60;;;;;;;;;;2091696;28;20252;-64
2022/07/21 01:57:36;;;;;;;31.13;25.80;;;;;;;;;;2092035;28;20167;-65
2022/07/21 01:58:36;;;;;;;29.33;25.35;;;;;;;;;;2092898;28;20679;-65
2022/07/21 01:59:36;;;;;;;28.45;24.63;;;;;;;;;;2083244;28;20176;-62
2022/07/21 02:00:37;;;;;;;30.42;25.58;;;;;;;;;;2083565;28;20176;-66
2022/07/21 02:01:37;;;;;;;28.02;25.23;;;;;;;;;;2082922;28;20187;-63
2022/07/21 02:02:38;;;;;;;34.53;27.15;;;;;;;;;;2083056;28;20176;-63
2022/07/21 02:03:38;;;;;;;31.45;25.75;;;;;;;;;;2092203;28;20538;-63
2022/07/21 02:04:38;;;;;;;28.45;25.55;;;;;;;;;;2091470;28;20245;-64
2022/07/21 02:05:39;;;;;;;36.10;27.63;;;;;;;;;;2092451;28;20186;-63
2022/07/21 02:06:39;;;;;;;34.20;26.15;;;;;;;;;;2092535;28;20174;-65
2022/07/21 02:07:39;;;;;;;30.08;26.05;;;;;;;;;;2091959;28;20619;-63
2022/07/21 02:08:42;;;;;;;31.77;26.33;;;;;;;;;;2092510;28;20540;-63
2022/07/21 02:09:42;;;;;;;31.08;23.83;;;;;;;;;;2092498;28;20159;-64
2022/07/21 02:10:43;;;;;;;31.35;25.25;;;;;;;;;;2091735;28;20203;-63
2022/07/21 02:11:43;;;;;;;32.35;26.88;;;;;;;;;;2092870;28;20234;-64
2022/07/21 02:12:43;;;;;;;29.23;25.52;;;;;;;;;;2082311;28;20217;-64
2022/07/21 02:13:45;;;;;;;31.83;26.02;;;;;;;;;;2082458;28;20206;-64
2022/07/21 02:14:45;;;;;;;26.63;23.80;;;;;;;;;;2090419;28;20159;-65
2022/07/21 02:15:45;;;;;;;28.40;24.73;;;;;;;;;;2091160;28;20171;-65
2022/07/21 02:16:45;;;;;;;25.63;22.88;;;;;;;;;;2082299;28;20187;-62
2022/07/21 02:17:46;;;;;;;27.08;22.38;;;;;;;;;;2074748;28;20216;-64
2022/07/21 02:18:46;;;;;;;25.25;21.67;;;;;;;;;;2082408;28;20180;-63
2022/07/21 02:19:46;;;;;;;27.35;23.13;;;;;;;;;;2091387;28;20216;-65
2022/07/21 02:20:54;;;;;;;26.50;23.27;;;;;;;;;;2091069;28;20598;-64
2022/07/21 02:21:54;;;;;;;25.13;21.83;;;;;;;;;;2091535;28;20238;-64
2022/07/21 02:22:54;;;;;;;25.55;21.83;;;;;;;;;;2081861;28;20172;-62
2022/07/21 02:23:55;;;;;;;24.25;21.77;;;;;;;;;;2081959;28;20200;-64
2022/07/21 02:24:55;;;;;;;24.65;21.85;;;;;;;;;;2090413;28;20170;-63
2022/07/21 02:25:56;;;;;;;24.20;21.58;;;;;;;;;;2091132;28;20793;-63
2022/07/21 02:26:57;;;;;;;24.77;22.20;;;;;;;;;;2082268;28;20186;-63
2022/07/21 02:27:57;;;;;;;27.35;22.45;;;;;;;;;;2082425;28;20180;-64
2022/07/21 02:28:57;;;;;;;27.50;21.85;;;;;;;;;;2090851;28;20206;-64
2022/07/21 02:29:58;;;;;;;26.27;21.55;;;;;;;;;;2090810;28;20264;-64
2022/07/21 02:30:58;;;;;;;25.42;21.17;;;;;;;;;;2091186;28;20238;-64
2022/07/21 02:31:59;;;;;;;25.65;22.45;;;;;;;;;;2090838;28;20171;-65
2022/07/21 02:32:59;;;;;;;24.40;21.30;;;;;;;;;;2090882;28;20233;-64
2022/07/21 02:33:59;;;;;;;23.42;20.80;;;;;;;;;;2090308;28;20168;-62
2022/07/21 02:34:59;;;;;;;22.80;20.40;;;;;;;;;;2090632;28;20175;-64
2022/07/21 02:36:00;;;;;;;27.88;21.92;;;;;;;;;;2089957;28;20171;-64
2022/07/21 02:37:00;;;;;;;23.52;20.95;;;;;;;;;;2090641;28;20585;-63
2022/07/21 02:38:00;;;;;;;24.25;21.35;;;;;;;;;;2090666;28;20184;-64
2022/07/21 02:39:01;;;;;;;25.48;22.75;;;;;;;;;;2081780;28;20180;-64
2022/07/21 02:40:02;;;;;;;28.48;24.35;;;;;;;;;;2081302;28;20730;-64
2022/07/21 02:41:02;;;;;;;28.15;24.00;;;;;;;;;;2090416;28;20194;-64
2022/07/21 02:42:02;;;;;;;24.90;22.30;;;;;;;;;;2090420;28;20190;-65
2022/07/21 02:43:03;;;;;;;24.42;21.88;;;;;;;;;;2081735;28;20179;-65
2022/07/21 02:44:03;;;;;;;25.42;21.38;;;;;;;;;;2080819;28;20164;-65
2022/07/21 02:45:05;;;;;;;24.63;21.88;;;;;;;;;;2090683;28;20168;-65
2022/07/21 02:46:05;;;;;;;26.15;21.13;;;;;;;;;;2090457;28;20525;-65
2022/07/21 02:47:05;;;;;;;27.42;22.35;;;;;;;;;;2090278;28;20176;-65
2022/07/21 02:48:07;;;;;;;24.58;20.75;;;;;;;;;;2090573;28;20183;-64
2022/07/21 02:49:07;;;;;;;23.23;20.98;;;;;;;;;;2081551;28;20223;-64
2022/07/21 02:50:08;;;;;;;22.98;20.42;;;;;;;;;;2072916;28;20201;-64
2022/07/21 02:51:08;;;;;;;23.17;20.77;;;;;;;;;;2081500;28;20219;-64
2022/07/21 02:52:09;;;;;;;21.75;19.45;;;;;;;;;;2089983;28;20298;-63
2022/07/21 02:53:14;;;;;;;25.00;20.10;;;;;;;;;;2081612;28;20176;-64
2022/07/21 02:54:14;;;;;;;24.70;20.58;;;;;;;;;;2081314;28;20186;-64
2022/07/21 02:55:14;;;;;;;24.17;20.33;;;;;;;;;;2090474;28;20541;-64
2022/07/21 02:56:15;;;;;;;22.23;19.80;;;;;;;;;;2090387;28;20271;-64
2022/07/21 02:57:15;;;;;;;22.08;19.77;;;;;;;;;;2081377;28;20173;-65
2022/07/21 02:58:20;;;;;;;22.35;19.90;;;;;;;;;;2081683;28;20235;-65
2022/07/21 02:59:20;;;;;;;21.83;19.50;;;;;;;;;;2090421;28;20189;-63
2022/07/21 03:00:20;;;;;;;21.60;19.27;;;;;;;;;;2090151;28;20202;-66
2022/07/21 03:01:21;;;;;;;23.02;20.30;;;;;;;;;;2090515;28;20198;-65
2022/07/21 03:02:21;;;;;;;20.90;18.77;;;;;;;;;;2081563;28;20216;-64
2022/07/21 03:03:22;;;;;;;20.33;18.38;;;;;;;;;;2081752;28;20251;-64
2022/07/21 03:04:22;;;;;;;21.35;19.05;;;;;;;;;;2080528;28;20184;-66
2022/07/21 03:05:23;;;;;;;21.15;18.75;;;;;;;;;;2081549;28;20171;-65
2022/07/21 03:06:23;;;;;;;21.20;18.95;;;;;;;;;;2090293;28;20175;-64
2022/07/21 03:07:24;;;;;;;20.17;18.13;;;;;;;;;;2081378;28;20649;-65
2022/07/21 03:08:25;;;;;;;21.77;19.48;;;;;;;;;;2081562;28;20257;-65
2022/07/21 03:09:25;;;;;;;21.30;19.13;;;;;;;;;;2090353;28;20167;-65
2022/07/21 03:10:26;;;;;;;20.05;18.08;;;;;;;;;;2090323;28;20191;-64
2022/07/21 03:11:26;;;;;;;20.15;18.05;;;;;;;;;;2090427;28;20176;-65
2022/07/21 03:12:26;;;;;;;21.88;18.23;;;;;;;;;;2090308;28;20205;-66
2022/07/21 03:13:27;;;;;;;21.30;17.90;;;;;;;;;;2090411;28;20241;-62
2022/07/21 03:14:27;;;;;;;21.35;18.90;;;;;;;;;;2089538;28;20237;-64
2022/07/21 03:15:28;;;;;;;20.20;17.95;;;;;;;;;;2088594;28;20207;-65
2022/07/21 03:16:28;;;;;;;19.02;17.02;;;;;;;;;;2082287;28;20172;-65
2022/07/21 03:17:28;;;;;;;19.70;17.77;;;;;;;;;;2081397;28;20171;-64
2022/07/21 03:18:29;;;;;;;19.75;17.30;;;;;;;;;;2081204;28;20651;-64
2022/07/21 03:19:29;;;;;;;18.20;16.27;;;;;;;;;;2081124;28;20562;-64
2022/07/21 03:20:31;;;;;;;19.25;17.15;;;;;;;;;;2090170;28;20176;-65
2022/07/21 03:21:31;;;;;;;19.38;17.38;;;;;;;;;;2090048;28;20164;-64
2022/07/21 03:22:31;;;;;;;17.48;15.73;;;;;;;;;;2090300;28;20549;-65
2022/07/21 03:23:32;;;;;;;20.42;18.08;;;;;;;;;;2090439;28;20632;-66
2022/07/21 03:24:32;;;;;;;19.73;17.73;;;;;;;;;;2089416;28;20541;-64
2022/07/21 03:25:33;;;;;;;21.73;19.63;;;;;;;;;;2089974;28;20597;-64
2022/07/21 03:26:38;;;;;;;21.30;19.02;;;;;;;;;;2090265;28;20166;-64
2022/07/21 03:27:38;;;;;;;20.60;18.40;;;;;;;;;;2090283;28;20144;-66
2022/07/21 03:28:39;;;;;;;20.90;17.88;;;;;;;;;;2090090;28;20184;-64
2022/07/21 03:29:40;;;;;;;21.05;18.80;;;;;;;;;;2089834;28;20167;-64
2022/07/21 03:30:40;;;;;;;20.15;18.15;;;;;;;;;;2088554;28;20598;-63
2022/07/21 03:31:40;;;;;;;21.77;18.42;;;;;;;;;;2089867;28;20171;-64
2022/07/21 03:32:41;;;;;;;20.20;17.65;;;;;;;;;;2089819;28;20179;-66
2022/07/21 03:33:41;;;;;;;20.70;18.80;;;;;;;;;;2089448;28;20167;-65
2022/07/21 03:34:42;;;;;;;20.92;18.83;;;;;;;;;;2088837;28;20572;-64
2022/07/21 03:35:42;;;;;;;20.88;17.35;;;;;;;;;;2090139;28;20561;-65
2022/07/21 03:36:42;;;;;;;20.60;18.58;;;;;;;;;;2090269;28;20168;-65
2022/07/21 03:37:44;;;;;;;21.45;19.00;;;;;;;;;;2088605;28;20175;-65
2022/07/21 03:38:44;;;;;;;20.73;18.58;;;;;;;;;;2073082;28;20176;-64
2022/07/21 03:39:45;;;;;;;21.77;19.48;;;;;;;;;;2073664;28;20676;-65
2022/07/21 03:40:45;;;;;;;21.85;19.27;;;;;;;;;;2082067;28;20741;-66
2022/07/21 03:41:45;;;;;;;22.80;19.23;;;;;;;;;;2081931;28;20206;-64
2022/07/21 03:42:46;;;;;;;23.40;20.92;;;;;;;;;;2090740;28;20613;-65
2022/07/21 03:43:46;;;;;;;22.98;20.58;;;;;;;;;;2090893;28;20630;-65
2022/07/21 03:44:46;;;;;;;23.48;21.17;;;;;;;;;;2089688;28;20176;-64
2022/07/21 03:45:47;;;;;;;23.85;20.30;;;;;;;;;;2090344;28;20525;-65
2022/07/21 03:46:47;;;;;;;22.42;19.67;;;;;;;;;;2074041;28;20460;-66
2022/07/21 03:47:47;;;;;;;26.27;23.70;;;;;;;;;;2072952;28;20192;-64
2022/07/21 03:48:48;;;;;;;24.70;21.40;;;;;;;;;;2082207;28;20208;-65
2022/07/21 03:49:48;;;;;;;23.33;20.83;;;;;;;;;;2082147;28;20701;-64
2022/07/21 03:50:48;;;;;;;19.08;17.20;;;;;;;;;;2091622;28;20175;-64
2022/07/21 03:51:49;;;;;;;19.00;16.08;;;;;;;;;;2090702;28;20683;-64
2022/07/21 03:52:49;;;;;;;21.42;14.32;;;;;;;;;;2090651;28;20319;-59
2022/07/21 03:53:49;;;;;;;15.85;14.25;;;;;;;;;;2090919;28;20167;-61
2022/07/21 03:54:50;;;;;;;15.07;12.98;;;;;;;;;;2089566;28;20209;-61
2022/07/21 03:55:50;;;;;;;26.15;15.00;;;;;;;;;;2091165;28;20202;-60
2022/07/21 03:56:50;;;;;;;40.47;15.00;;;;;;;;;;2090247;28;20180;-60
2022/07/21 03:57:52;;;;;;;45.63;15.90;;;;;;;;;;2080803;28;20266;-56
2022/07/21 03:58:52;;;;;;;35.67;14.30;;;;;;;;;;2081082;28;20171;-64
2022/07/21 03:59:53;;;;;;;57.08;16.92;;;;;;;;;;2073530;28;20193;-64
2022/07/21 04:00:53;;;;;;;30.10;14.60;;;;;;;;;;2081048;28;20824;-64
2022/07/21 04:01:53;;;;;;;15.35;13.75;;;;;;;;;;2090379;28;20171;-64
2022/07/21 04:02:54;;;;;;;15.85;12.57;;;;;;;;;;2089993;28;20156;-65
2022/07/21 04:03:54;;;;;;;13.27;12.07;;;;;;;;;;2089667;28;20213;-64
2022/07/21 04:04:55;;;;;;;15.73;12.30;;;;;;;;;;2089295;28;20195;-65
2022/07/21 04:05:55;;;;;;;15.85;12.63;;;;;;;;;;2080836;28;20234;-66
2022/07/21 04:06:55;;;;;;;18.63;14.15;;;;;;;;;;2081035;28;20172;-65
2022/07/21 04:07:56;;;;;;;15.13;13.63;;;;;;;;;;2089855;28;20155;-64
2022/07/21 04:08:56;;;;;;;17.40;13.35;;;;;;;;;;2089491;28;20230;-66
2022/07/21 04:09:56;;;;;;;15.15;13.75;;;;;;;;;;2089532;28;20218;-66
2022/07/21 04:10:58;;;;;;;20.15;14.10;;;;;;;;;;2087006;28;20167;-66
2022/07/21 04:11:58;;;;;;;18.17;15.27;;;;;;;;;;2081708;28;20175;-65
2022/07/21 04:13:13;;;;;;;17.58;15.00;;;;;;;;;;2081502;28;20581;-65
2022/07/21 04:14:13;;;;;;;28.80;17.00;;;;;;;;;;2080706;28;20198;-63
2022/07/21 04:15:14;;;;;;;32.33;15.93;;;;;;;;;;2081450;28;20160;-63
2022/07/21 04:16:14;;;;;;;45.55;18.35;;;;;;;;;;2079396;28;20172;-61
2022/07/21 04:17:15;;;;;;;74.63;19.55;;;;;;;;;;2080824;28;20601;-61
2022/07/21 04:18:15;;;;;;;16.05;13.52;;;;;;;;;;2089697;28;20168;-62
2022/07/21 04:19:15;;;;;;;18.85;14.52;;;;;;;;;;2089344;28;20536;-63
2022/07/21 04:20:16;;;;;;;16.20;12.15;;;;;;;;;;2089675;28;20178;-62
2022/07/21 04:21:16;;;;;;;30.30;13.30;;;;;;;;;;2089429;28;20603;-61
2022/07/21 04:22:17;;;;;;;57.08;15.05;;;;;;;;;;2089802;28;20171;-58
2022/07/21 04:23:17;;;;;;;73.53;17.45;;;;;;;;;;2089787;28;20270;-61
2022/07/21 04:24:17;;;;;;;23.02;11.73;;;;;;;;;;2089030;28;20318;-64
2022/07/21 04:25:18;;;;;;;39.13;13.45;;;;;;;;;;2089868;28;20523;-62
2022/07/21 04:26:18;;;;;;;33.65;13.70;;;;;;;;;;2089748;28;20172;-62
2022/07/21 04:27:18;;;;;;;27.27;13.13;;;;;;;;;;2089761;28;20504;-60
2022/07/21 04:28:19;;;;;;;67.85;16.75;;;;;;;;;;2089823;28;20700;-58
2022/07/21 04:29:19;;;;;;;47.53;15.35;;;;;;;;;;2089710;28;20201;-61
2022/07/21 04:30:21;;;;;;;24.33;11.88;;;;;;;;;;2089577;28;20248;-60
2022/07/21 04:31:21;;;;;;;31.77;12.80;;;;;;;;;;2089638;28;20179;-61
2022/07/21 04:32:22;;;;;;;26.63;11.48;;;;;;;;;;2086688;28;20179;-63
2022/07/21 04:33:22;;;;;;;17.60;9.63;;;;;;;;;;2081539;28;20172;-62
2022/07/21 04:34:22;;;;;;;15.10;10.30;;;;;;;;;;2080593;28;20247;-62
2022/07/21 04:35:23;;;;;;;12.93;10.45;;;;;;;;;;2072789;28;20207;-62
2022/07/21 04:36:23;;;;;;;12.32;11.02;;;;;;;;;;2072637;28;20173;-61
2022/07/21 04:37:23;;;;;;;10.68;9.77;;;;;;;;;;2088997;28;20164;-61
2022/07/21 04:38:24;;;;;;;17.92;9.80;;;;;;;;;;2094602;28;20164;-63
2022/07/21 04:39:24;;;;;;;10.30;9.15;;;;;;;;;;2090047;28;20170;-62
2022/07/21 04:40:24;;;;;;;9.88;8.98;;;;;;;;;;2085982;28;20260;-63
2022/07/21 04:41:25;;;;;;;11.10;9.52;;;;;;;;;;2087704;28;20524;-62
2022/07/21 04:42:25;;;;;;;10.75;9.75;;;;;;;;;;2088835;28;20199;-63
2022/07/21 04:43:25;;;;;;;18.77;10.10;;;;;;;;;;2089409;28;20175;-61
2022/07/21 04:44:26;;;;;;;10.63;9.52;;;;;;;;;;2088587;28;20178;-62
2022/07/21 04:45:26;;;;;;;13.32;9.45;;;;;;;;;;2089808;28;20191;-61
2022/07/21 04:46:26;;;;;;;9.77;8.80;;;;;;;;;;2089556;28;20167;-62
2022/07/21 04:47:27;;;;;;;17.77;10.13;;;;;;;;;;2080494;28;20236;-62
2022/07/21 04:48:27;;;;;;;9.63;8.73;;;;;;;;;;2081147;28;20222;-63
2022/07/21 04:49:27;;;;;;;10.05;9.05;;;;;;;;;;2086272;28;20183;-60
2022/07/21 04:50:28;;;;;;;10.20;9.18;;;;;;;;;;2086570;28;20259;-62
2022/07/21 04:51:28;;;;;;;18.83;9.98;;;;;;;;;;2080715;28;20168;-61
2022/07/21 04:52:28;;;;;;;10.60;9.57;;;;;;;;;;2080718;28;20187;-62
2022/07/21 04:53:29;;;;;;;12.70;10.63;;;;;;;;;;2090961;28;20214;-63
2022/07/21 04:54:29;;;;;;;16.08;9.45;;;;;;;;;;2088156;28;20185;-62
2022/07/21 04:55:29;;;;;;;23.20;10.52;;;;;;;;;;2081514;28;20176;-60
2022/07/21 04:56:30;;;;;;;13.90;10.13;;;;;;;;;;2081377;28;20171;-62
2022/07/21 04:57:30;;;;;;;10.25;8.85;;;;;;;;;;2081409;28;20172;-63
2022/07/21 04:58:31;;;;;;;12.20;9.95;;;;;;;;;;2088358;28;20215;-62
2022/07/21 04:59:31;;;;;;;11.52;9.82;;;;;;;;;;2090666;28;20174;-62
2022/07/21 05:00:32;;;;;;;11.10;9.98;;;;;;;;;;2090911;28;20682;-64
2022/07/21 05:01:32;;;;;;;13.48;9.65;;;;;;;;;;2091064;28;20175;-64
2022/07/21 05:02:32;;;;;;;16.20;11.05;;;;;;;;;;2091543;28;20225;-62
2022/07/21 05:03:33;;;;;;;13.15;9.95;;;;;;;;;;2082415;28;20183;-62
2022/07/21 05:04:33;;;;;;;14.95;10.45;;;;;;;;;;2081909;28;20164;-63
2022/07/21 05:05:33;;;;;;;10.65;9.68;;;;;;;;;;2082363;28;20551;-62
2022/07/21 05:06:34;;;;;;;12.05;10.80;;;;;;;;;;2079955;28;20169;-64
2022/07/21 05:07:35;;;;;;;10.65;9.70;;;;;;;;;;2085707;28;20542;-61
2022/07/21 05:08:35;;;;;;;10.55;9.63;;;;;;;;;;2087977;28;20210;-64
2022/07/21 05:09:44;;;;;;;13.27;11.32;;;;;;;;;;2076884;28;20231;-65
2022/07/21 05:10:54;;;;;;;13.05;11.75;;;;;;;;;;2074584;28;20160;-63
2022/07/21 05:11:54;;;;;;;15.93;12.45;;;;;;;;;;2075033;28;20672;-65
2022/07/21 05:12:57;;;;;;;14.13;12.63;;;;;;;;;;2076226;28;20181;-66
2022/07/21 05:13:57;;;;;;;12.60;11.38;;;;;;;;;;2082158;28;20182;-64
2022/07/21 05:14:57;;;;;;;14.13;11.70;;;;;;;;;;2091017;28;20179;-65
2022/07/21 05:15:58;;;;;;;12.85;11.65;;;;;;;;;;2091351;28;20186;-64
2022/07/21 05:16:58;;;;;;;13.13;11.93;;;;;;;;;;2091352;28;20159;-66
2022/07/21 05:17:58;;;;;;;13.48;12.05;;;;;;;;;;2091247;28;20574;-67
2022/07/21 05:18:59;;;;;;;13.75;12.43;;;;;;;;;;2092194;28;20569;-67
2022/07/21 05:19:59;;;;;;;12.93;11.63;;;;;;;;;;2092282;28;20195;-66
2022/07/21 05:20:59;;;;;;;13.38;11.20;;;;;;;;;;2083588;28;20175;-67
2022/07/21 05:22:00;;;;;;;11.90;10.70;;;;;;;;;;2084299;28;20668;-66
2022/07/21 05:23:01;;;;;;;12.85;11.38;;;;;;;;;;2093027;28;20652;-65
2022/07/21 05:24:02;;;;;;;12.07;10.88;;;;;;;;;;2082889;28;20172;-67
2022/07/21 05:25:03;;;;;;;11.60;10.60;;;;;;;;;;2084181;28;20375;-68
2022/07/21 05:26:03;;;;;;;12.63;11.35;;;;;;;;;;2092544;28;20504;-66
2022/07/21 05:27:03;;;;;;;12.57;11.35;;;;;;;;;;2092563;28;20175;-66
2022/07/21 05:28:07;;;;;;;15.05;13.55;;;;;;;;;;2092751;28;20172;-66
2022/07/21 05:29:07;;;;;;;13.30;11.98;;;;;;;;;;2092335;28;20194;-65
2022/07/21 05:30:08;;;;;;;13.40;12.10;;;;;;;;;;2110707;22;20217;-63
2022/07/21 05:31:08;;;;;;;15.90;13.23;;;;;;;;;;2065004;28;20177;-58
2022/07/21 05:32:09;;;;;;;14.57;12.93;;;;;;;;;;2072381;28;20168;-55
2022/07/21 05:33:09;;;;;;;14.07;12.55;;;;;;;;;;2077462;28;20199;-53
2022/07/21 05:34:09;;;;;;;15.63;13.73;;;;;;;;;;2082444;28;20168;-55
2022/07/21 05:35:11;;;;;;;15.25;13.55;;;;;;;;;;2077030;28;20224;-57
2022/07/21 05:36:11;;;;;;;14.95;13.50;;;;;;;;;;2075692;28;20215;-54
2022/07/21 05:37:11;;;;;;;14.82;12.77;;;;;;;;;;2078560;28;20679;-55
2022/07/21 05:38:12;;;;;;;17.92;14.77;;;;;;;;;;2083018;28;20259;-57
2022/07/21 05:39:13;;;;;;;14.95;13.35;;;;;;;;;;2075324;28;20177;-56
2022/07/21 05:40:14;;;;;;;15.50;13.82;;;;;;;;;;2083822;28;20421;-56
2022/07/21 05:41:15;;;;;;;15.48;13.90;;;;;;;;;;2083723;28;20648;-53
2022/07/21 05:42:15;;;;;;;15.48;13.98;;;;;;;;;;2083303;28;20180;-51
2022/07/21 05:43:15;;;;;;;14.57;13.15;;;;;;;;;;2072554;28;20200;-52
2022/07/21 05:44:16;;;;;;;16.38;14.15;;;;;;;;;;2074119;28;20167;-52
2022/07/21 05:45:16;;;;;;;15.98;14.38;;;;;;;;;;2075117;28;20184;-55
2022/07/21 05:46:16;;;;;;;15.45;13.80;;;;;;;;;;2075124;28;20181;-55
2022/07/21 05:47:17;;;;;;;14.23;12.65;;;;;;;;;;2083975;28;20537;-55
2022/07/21 05:48:17;;;;;;;14.65;13.25;;;;;;;;;;2082610;28;20527;-53
2022/07/21 05:49:18;;;;;;;14.85;13.23;;;;;;;;;;2083512;28;20196;-53
2022/07/21 05:50:18;;;;;;;15.38;13.88;;;;;;;;;;2083710;28;20192;-52
2022/07/21 05:51:18;;;;;;;15.43;13.85;;;;;;;;;;2074865;28;20236;-55
2022/07/21 05:52:19;;;;;;;15.27;13.80;;;;;;;;;;2075168;28;20180;-56
2022/07/21 05:53:19;;;;;;;17.25;14.82;;;;;;;;;;2083112;28;20156;-55
2022/07/21 05:54:19;;;;;;;16.35;14.75;;;;;;;;;;2082968;28;20164;-54
2022/07/21 05:55:20;;;;;;;15.70;14.27;;;;;;;;;;2083453;28;20286;-53
2022/07/21 05:56:20;;;;;;;16.63;15.02;;;;;;;;;;2084106;28;20174;-52
2022/07/21 05:57:20;;;;;;;16.80;15.20;;;;;;;;;;2083599;28;20164;-52